createdAt,value
2018-09-07T00:00:21.200Z,19.30
2018-09-07T00:02:49.455Z,20.43
2018-09-07T00:05:17.682Z,18.00
2018-09-07T00:07:45.930Z,17.90
2018-09-07T00:10:14.130Z,19.30
2018-09-07T00:12:42.364Z,18.20
2018-09-07T00:15:10.559Z,14.00
2018-09-07T00:17:38.786Z,17.50
2018-09-07T00:20:07.476Z,14.70
2018-09-07T00:22:35.731Z,10.17
2018-09-07T00:25:04.135Z,13.57
2018-09-07T00:27:33.178Z,12.50
2018-09-07T00:30:02.221Z,14.37
2018-09-07T00:32:30.458Z,13.33
2018-09-07T00:34:58.684Z,13.07
2018-09-07T00:37:26.918Z,12.07
2018-09-07T00:39:55.150Z,14.13
2018-09-07T00:42:23.364Z,12.20
2018-09-07T00:44:51.628Z,11.17
2018-09-07T00:47:19.823Z,11.37
2018-09-07T00:49:48.015Z,12.30
2018-09-07T00:52:16.295Z,12.90
2018-09-07T00:54:44.729Z,14.37
2018-09-07T00:57:12.951Z,13.77
2018-09-07T00:59:41.159Z,15.40
2018-09-07T01:02:09.450Z,14.33
2018-09-07T01:04:37.894Z,14.47
2018-09-07T01:07:06.107Z,15.30
2018-09-07T01:09:34.306Z,13.70
2018-09-07T01:12:02.570Z,14.63
2018-09-07T01:14:30.795Z,14.43
2018-09-07T01:16:59.011Z,13.57
2018-09-07T01:19:27.224Z,13.93
2018-09-07T01:21:55.475Z,15.10
2018-09-07T01:24:23.852Z,14.43
2018-09-07T01:26:52.147Z,16.40
2018-09-07T01:29:20.375Z,15.03
2018-09-07T01:31:48.615Z,15.43
2018-09-07T01:34:21.823Z,16.37
2018-09-07T01:36:50.069Z,16.93
2018-09-07T01:39:18.275Z,17.10
2018-09-07T01:41:46.486Z,18.20
2018-09-07T01:44:14.783Z,16.50
2018-09-07T01:46:42.987Z,16.90
2018-09-07T01:49:11.210Z,18.30
2018-09-07T01:51:39.434Z,18.10
2018-09-07T01:54:07.666Z,17.83
2018-09-07T01:56:35.908Z,19.30
2018-09-07T01:59:04.100Z,17.80
2018-09-07T02:01:32.355Z,17.80
2018-09-07T02:04:00.580Z,16.97
2018-09-07T02:06:29.852Z,19.40
2018-09-07T02:08:58.094Z,18.10
2018-09-07T02:11:26.307Z,19.97
2018-09-07T02:13:54.732Z,18.60
2018-09-07T02:16:22.987Z,18.97
2018-09-07T02:18:51.203Z,19.53
2018-09-07T02:21:19.438Z,19.13
2018-09-07T02:23:47.658Z,19.40
2018-09-07T02:26:16.719Z,20.00
2018-09-07T02:28:44.926Z,20.50
2018-09-07T02:31:13.152Z,19.13
2018-09-07T02:33:41.352Z,19.10
2018-09-07T02:36:09.570Z,19.33
2018-09-07T02:38:37.774Z,19.57
2018-09-07T02:41:06.155Z,18.40
2018-09-07T02:43:34.483Z,19.47
2018-09-07T02:46:02.731Z,19.93
2018-09-07T02:48:30.932Z,18.17
2018-09-07T02:50:59.143Z,19.03
2018-09-07T02:53:27.414Z,20.80
2018-09-07T02:55:55.624Z,19.53
2018-09-07T02:58:23.859Z,18.97
2018-09-07T03:00:52.099Z,19.57
2018-09-07T03:03:20.296Z,19.60
2018-09-07T03:05:48.571Z,19.23
2018-09-07T03:08:16.824Z,18.87
2018-09-07T03:10:45.052Z,19.80
2018-09-07T03:13:13.291Z,18.67
2018-09-07T03:15:41.478Z,18.17
2018-09-07T03:18:09.712Z,19.50
2018-09-07T03:20:37.911Z,19.50
2018-09-07T03:23:06.115Z,18.43
2018-09-07T03:25:34.356Z,18.30
2018-09-07T03:28:02.563Z,19.20
2018-09-07T03:30:30.787Z,19.57
2018-09-07T03:32:59.003Z,18.63
2018-09-07T03:35:27.267Z,17.37
2018-09-07T03:37:55.483Z,19.57
2018-09-07T03:40:23.699Z,18.40
2018-09-07T03:42:51.926Z,18.87
2018-09-07T03:45:20.142Z,18.00
2018-09-07T03:47:48.417Z,16.90
2018-09-07T03:50:16.644Z,18.90
2018-09-07T03:52:44.847Z,17.07
2018-09-07T03:55:13.155Z,17.57
2018-09-07T03:57:41.556Z,18.17
2018-09-07T04:00:09.788Z,17.70
2018-09-07T04:02:37.986Z,18.57
2018-09-07T04:05:06.678Z,19.10
2018-09-07T04:07:35.115Z,18.10
2018-09-07T04:10:03.395Z,18.70
2018-09-07T04:12:31.603Z,16.90
2018-09-07T04:14:59.808Z,19.30
2018-09-07T04:17:28.040Z,17.73
2018-09-07T04:19:56.279Z,20.20
2018-09-07T04:22:24.494Z,21.43
2018-09-07T04:24:52.693Z,19.20
2018-09-07T04:27:20.935Z,20.17
2018-09-07T04:29:49.123Z,19.73
2018-09-07T04:32:17.387Z,22.43
2018-09-07T04:34:45.695Z,20.43
2018-09-07T04:37:13.928Z,22.60
2018-09-07T04:39:42.157Z,22.73
2018-09-07T04:42:10.400Z,21.03
2018-09-07T04:44:38.611Z,19.10
2018-09-07T04:47:06.914Z,22.03
2018-09-07T04:49:35.131Z,19.70
2018-09-07T04:52:03.356Z,22.60
2018-09-07T04:54:31.620Z,22.63
2018-09-07T04:56:59.852Z,21.33
2018-09-07T04:59:28.075Z,21.60
2018-09-07T05:01:56.306Z,22.47
2018-09-07T05:04:24.603Z,22.57
2018-09-07T05:06:52.822Z,22.67
2018-09-07T05:09:21.102Z,23.97
2018-09-07T05:11:49.396Z,21.97
2018-09-07T05:14:17.610Z,24.10
2018-09-07T05:16:45.956Z,23.10
2018-09-07T05:19:14.170Z,22.93
2018-09-07T05:21:42.396Z,23.90
2018-09-07T05:24:11.629Z,25.37
2018-09-07T05:26:39.848Z,24.73
2018-09-07T05:29:08.038Z,24.63
2018-09-07T05:31:36.326Z,23.00
2018-09-07T05:34:04.592Z,23.50
2018-09-07T05:36:32.821Z,22.73
2018-09-07T05:39:01.122Z,21.80
2018-09-07T05:41:29.364Z,22.67
2018-09-07T05:43:57.585Z,24.63
2018-09-07T05:46:25.826Z,25.93
2018-09-07T05:48:54.059Z,25.10
2018-09-07T05:51:22.261Z,26.17
2018-09-07T05:53:50.487Z,23.80
2018-09-07T05:56:18.725Z,24.20
2018-09-07T05:58:47.371Z,23.10
2018-09-07T06:01:15.589Z,26.00
2018-09-07T06:03:44.203Z,25.90
2018-09-07T06:06:12.470Z,25.97
2018-09-07T06:08:40.711Z,26.97
2018-09-07T06:11:08.939Z,26.13
2018-09-07T06:13:37.148Z,27.10
2018-09-07T06:16:05.421Z,24.90
2018-09-07T06:18:33.663Z,28.63
2018-09-07T06:21:01.885Z,27.90
2018-09-07T06:23:30.104Z,27.77
2018-09-07T06:25:58.340Z,29.07
2018-09-07T06:28:26.531Z,29.67
2018-09-07T06:30:54.753Z,31.67
2018-09-07T06:33:23.031Z,23.67
2018-09-07T06:35:51.251Z,28.93
2018-09-07T06:38:19.512Z,28.40
2018-09-07T06:40:47.707Z,21.57
2018-09-07T06:43:15.922Z,24.63
2018-09-07T06:45:44.135Z,29.17
2018-09-07T06:48:12.367Z,27.50
2018-09-07T06:50:40.595Z,29.47
2018-09-07T06:53:08.819Z,28.13
2018-09-07T06:55:37.048Z,27.10
2018-09-07T06:58:05.269Z,28.27
2018-09-07T07:00:33.507Z,29.97
2018-09-07T07:03:01.832Z,29.20
2018-09-07T07:05:30.004Z,28.37
2018-09-07T07:07:58.236Z,24.30
2018-09-07T07:10:26.453Z,27.57
2018-09-07T07:12:54.684Z,27.23
2018-09-07T07:15:22.897Z,24.20
2018-09-07T07:17:51.205Z,25.07
2018-09-07T07:20:19.728Z,22.20
2018-09-07T07:22:47.960Z,23.50
2018-09-07T07:25:16.255Z,19.10
2018-09-07T07:27:44.508Z,18.50
2018-09-07T07:30:12.714Z,20.60
2018-09-07T07:32:40.944Z,19.80
2018-09-07T07:35:09.159Z,16.97
2018-09-07T07:37:37.407Z,20.50
2018-09-07T07:40:05.635Z,16.80
2018-09-07T07:42:33.855Z,16.47
2018-09-07T07:45:02.074Z,13.73
2018-09-07T07:47:30.271Z,15.30
2018-09-07T07:49:58.509Z,14.37
2018-09-07T07:52:26.760Z,14.17
2018-09-07T07:54:55.122Z,17.90
2018-09-07T07:57:24.182Z,11.17
2018-09-07T07:59:52.596Z,14.87
2018-09-07T08:02:20.824Z,14.40
2018-09-07T08:04:49.060Z,14.63
2018-09-07T08:07:17.255Z,16.40
2018-09-07T08:09:45.509Z,15.27
2018-09-07T08:12:13.714Z,11.40
2018-09-07T08:14:42.158Z,16.67
2018-09-07T08:17:10.378Z,14.53
2018-09-07T08:19:38.583Z,12.50
2018-09-07T08:22:06.821Z,12.13
2018-09-07T08:24:35.116Z,10.93
2018-09-07T08:27:03.314Z,10.07
2018-09-07T08:29:31.503Z,11.67
2018-09-07T08:31:59.712Z,12.30
2018-09-07T08:34:28.143Z,12.00
2018-09-07T08:36:56.398Z,12.13
2018-09-07T08:39:24.655Z,12.50
2018-09-07T08:41:52.936Z,13.50
2018-09-07T08:44:21.222Z,12.70
2018-09-07T08:46:49.445Z,12.03
2018-09-07T08:49:17.651Z,9.83
2018-09-07T08:51:45.884Z,12.43
2018-09-07T08:54:14.219Z,10.30
2018-09-07T08:56:42.491Z,10.57
2018-09-07T08:59:11.004Z,10.87
2018-09-07T09:01:39.223Z,10.20
2018-09-07T09:04:07.433Z,9.73
2018-09-07T09:06:35.683Z,9.00
2018-09-07T09:09:04.979Z,7.50
2018-09-07T09:11:33.179Z,8.10
2018-09-07T09:14:01.404Z,8.20
2018-09-07T09:16:29.620Z,8.17
2018-09-07T09:18:57.853Z,9.17
2018-09-07T09:21:26.083Z,8.13
2018-09-07T09:23:54.351Z,7.30
2018-09-07T09:26:22.608Z,7.87
2018-09-07T09:28:50.812Z,6.50
2018-09-07T09:31:19.043Z,6.43
2018-09-07T09:33:47.278Z,7.90
2018-09-07T09:36:15.855Z,8.27
2018-09-07T09:38:44.079Z,7.37
2018-09-07T09:41:12.303Z,7.13
2018-09-07T09:43:40.507Z,3.73
2018-09-07T09:46:08.742Z,5.00
2018-09-07T09:48:37.003Z,2.63
2018-09-07T09:51:05.258Z,3.40
2018-09-07T09:53:33.668Z,4.30
2018-09-07T09:56:01.874Z,4.40
2018-09-07T09:58:30.159Z,3.90
2018-09-07T10:01:03.771Z,3.33
2018-09-07T10:03:37.419Z,2.70
2018-09-07T10:06:05.649Z,2.40
2018-09-07T10:08:33.921Z,2.40
2018-09-07T10:11:02.105Z,2.93
2018-09-07T10:13:30.335Z,3.37
2018-09-07T10:15:58.558Z,3.70
2018-09-07T10:18:26.791Z,3.63
2018-09-07T10:20:55.018Z,4.20
2018-09-07T10:23:23.259Z,4.53
2018-09-07T10:25:51.482Z,2.87
2018-09-07T10:28:19.689Z,2.30
2018-09-07T10:30:47.919Z,2.90
2018-09-07T10:33:16.242Z,3.27
2018-09-07T10:35:44.442Z,2.17
2018-09-07T10:38:12.689Z,2.37
2018-09-07T10:40:40.888Z,3.07
2018-09-07T10:43:09.109Z,2.80
2018-09-07T10:45:37.327Z,3.07
2018-09-07T10:48:05.535Z,3.33
2018-09-07T10:50:33.768Z,3.60
2018-09-07T10:53:02.067Z,4.03
2018-09-07T10:55:30.273Z,2.60
2018-09-07T10:57:58.503Z,3.87
2018-09-07T11:00:26.727Z,3.67
2018-09-07T11:02:54.963Z,4.37
2018-09-07T11:05:23.163Z,4.37
2018-09-07T11:07:51.384Z,3.90
2018-09-07T11:10:19.586Z,2.97
2018-09-07T11:12:47.798Z,3.83
2018-09-07T11:15:16.044Z,3.43
2018-09-07T11:17:44.247Z,2.70
2018-09-07T11:20:12.567Z,3.20
2018-09-07T11:22:40.812Z,2.10
2018-09-07T11:25:09.023Z,1.50
2018-09-07T11:27:37.223Z,1.63
2018-09-07T11:30:05.586Z,1.50
2018-09-07T11:32:34.172Z,1.30
2018-09-07T11:35:02.622Z,1.90
2018-09-07T11:37:30.827Z,1.53
2018-09-07T11:39:59.068Z,1.20
2018-09-07T11:42:27.308Z,1.10
2018-09-07T11:44:56.411Z,0.90
2018-09-07T11:47:24.635Z,0.90
2018-09-07T11:49:52.864Z,1.13
2018-09-07T11:52:21.055Z,1.27
2018-09-07T11:54:49.342Z,1.00
2018-09-07T11:57:17.495Z,1.80
2018-09-07T11:59:45.703Z,1.40
2018-09-07T12:02:14.043Z,1.47
2018-09-07T12:04:42.396Z,1.10
2018-09-07T12:07:10.427Z,1.17
2018-09-07T12:09:38.655Z,0.80
2018-09-07T12:12:06.883Z,1.67
2018-09-07T12:14:35.120Z,1.10
2018-09-07T12:17:03.370Z,1.00
2018-09-07T12:19:31.590Z,0.90
2018-09-07T12:21:59.790Z,1.03
2018-09-07T12:24:28.095Z,0.97
2018-09-07T12:26:56.435Z,1.23
2018-09-07T12:29:24.792Z,0.70
2018-09-07T12:31:53.637Z,1.20
2018-09-07T12:34:22.483Z,1.27
2018-09-07T12:36:50.763Z,1.00
2018-09-07T12:39:18.962Z,0.70
2018-09-07T12:41:47.834Z,1.13
2018-09-07T12:44:16.218Z,0.83
2018-09-07T12:46:44.920Z,1.13
2018-09-07T12:49:13.244Z,1.00
2018-09-07T12:51:42.127Z,0.80
2018-09-07T12:54:10.404Z,1.33
2018-09-07T12:56:38.685Z,0.90
2018-09-07T12:59:06.902Z,1.27
2018-09-07T13:01:41.666Z,0.70
2018-09-07T13:04:11.968Z,0.93
2018-09-07T13:06:40.495Z,1.00
2018-09-07T13:09:10.730Z,0.80
2018-09-07T13:11:38.947Z,1.10
2018-09-07T13:14:07.274Z,1.47
2018-09-07T13:16:35.721Z,1.13
2018-09-07T13:19:04.012Z,0.60
2018-09-07T13:21:32.248Z,0.50
2018-09-07T13:24:00.445Z,0.87
2018-09-07T13:26:28.688Z,1.10
2018-09-07T13:28:57.029Z,0.90
2018-09-07T13:31:25.247Z,1.00
2018-09-07T13:33:53.467Z,0.70
2018-09-07T13:36:21.963Z,0.80
2018-09-07T13:38:50.429Z,0.90
2018-09-07T13:41:18.634Z,1.00
2018-09-07T13:43:47.016Z,0.73
2018-09-07T13:46:15.234Z,1.00
2018-09-07T13:48:43.443Z,1.03
2018-09-07T13:51:11.720Z,1.27
2018-09-07T13:53:39.923Z,0.80
2018-09-07T13:56:08.156Z,1.30
2018-09-07T13:58:36.366Z,0.70
2018-09-07T14:01:04.585Z,0.97
2018-09-07T14:03:32.819Z,0.50
2018-09-07T14:06:01.035Z,0.80
2018-09-07T14:08:29.259Z,0.67
2018-09-07T14:10:57.496Z,0.70
2018-09-07T14:13:25.947Z,0.90
2018-09-07T14:15:54.177Z,0.63
2018-09-07T14:18:22.377Z,0.60
2018-09-07T14:20:50.597Z,0.57
2018-09-07T14:23:18.843Z,0.70
2018-09-07T14:25:47.059Z,0.60
2018-09-07T14:28:15.287Z,0.90
2018-09-07T14:30:43.541Z,0.90
2018-09-07T14:33:11.731Z,0.87
2018-09-07T14:35:39.948Z,0.60
2018-09-07T14:38:08.198Z,0.50
2018-09-07T14:40:36.407Z,0.60
2018-09-07T14:43:04.611Z,0.50
2018-09-07T14:45:32.818Z,0.60
2018-09-07T14:48:01.000Z,0.80
2018-09-07T14:50:29.216Z,0.50
2018-09-07T14:52:57.463Z,0.87
2018-09-07T14:55:25.705Z,0.80
2018-09-07T14:57:53.940Z,0.70
2018-09-07T15:00:22.218Z,0.70
2018-09-07T15:02:50.383Z,0.60
2018-09-07T15:05:18.714Z,0.83
2018-09-07T15:07:47.035Z,0.60
2018-09-07T15:10:15.240Z,0.70
2018-09-07T15:12:43.423Z,0.70
2018-09-07T15:15:11.648Z,0.80
2018-09-07T15:17:39.861Z,0.90
2018-09-07T15:20:08.132Z,0.60
2018-09-07T15:22:36.319Z,0.70
2018-09-07T15:25:04.535Z,0.70
2018-09-07T15:27:32.786Z,0.80
2018-09-07T15:30:01.030Z,0.60
2018-09-07T15:32:29.270Z,1.60
2018-09-07T15:34:57.660Z,0.67
2018-09-07T15:37:25.887Z,1.00
2018-09-07T15:39:54.092Z,0.93
2018-09-07T15:42:22.337Z,0.80
2018-09-07T15:44:50.511Z,0.87
2018-09-07T15:47:18.857Z,0.60
2018-09-07T15:49:47.066Z,1.00
2018-09-07T15:52:15.298Z,0.77
2018-09-07T15:54:43.523Z,0.80
2018-09-07T15:57:11.764Z,1.30
2018-09-07T15:59:39.971Z,0.63
2018-09-07T16:02:08.212Z,0.70
2018-09-07T16:04:36.591Z,0.90
2018-09-07T16:07:04.828Z,0.87
2018-09-07T16:09:33.224Z,0.80
2018-09-07T16:12:01.427Z,0.90
2018-09-07T16:14:29.698Z,0.70
2018-09-07T16:16:57.955Z,0.90
2018-09-07T16:19:26.179Z,0.73
2018-09-07T16:21:54.402Z,0.80
2018-09-07T16:24:22.648Z,0.80
2018-09-07T16:26:50.891Z,0.70
2018-09-07T16:29:19.108Z,0.67
2018-09-07T16:31:47.386Z,0.73
2018-09-07T16:34:15.698Z,0.50
2018-09-07T16:36:43.903Z,0.70
2018-09-07T16:39:12.115Z,0.70
2018-09-07T16:41:40.363Z,0.93
2018-09-07T16:44:09.485Z,0.63
2018-09-07T16:46:37.703Z,0.90
2018-09-07T16:49:06.435Z,0.90
2018-09-07T16:51:34.639Z,1.10
2018-09-07T16:54:02.866Z,2.00
2018-09-07T16:56:31.059Z,0.83
2018-09-07T16:58:59.345Z,0.87
2018-09-07T17:01:27.555Z,0.90
2018-09-07T17:03:55.918Z,0.70
2018-09-07T17:06:24.155Z,0.70
2018-09-07T17:08:52.355Z,0.57
2018-09-07T17:11:20.599Z,0.93
2018-09-07T17:13:48.806Z,0.70
2018-09-07T17:16:17.042Z,0.90
2018-09-07T17:18:45.342Z,0.70
2018-09-07T17:21:13.507Z,0.63
2018-09-07T17:23:41.776Z,0.80
2018-09-07T17:26:09.996Z,1.10
2018-09-07T17:28:38.235Z,1.00
2018-09-07T17:31:06.459Z,0.90
2018-09-07T17:33:34.750Z,0.73
2018-09-07T17:36:02.984Z,0.77
2018-09-07T17:38:31.218Z,0.70
2018-09-07T17:40:59.447Z,0.80
2018-09-07T17:43:27.679Z,1.03
2018-09-07T17:45:55.915Z,0.70
2018-09-07T17:48:24.143Z,0.90
2018-09-07T17:50:52.395Z,0.90
2018-09-07T17:53:20.636Z,0.90
2018-09-07T17:55:48.827Z,1.00
2018-09-07T17:58:17.047Z,0.80
2018-09-07T18:00:45.309Z,0.80
2018-09-07T18:03:13.540Z,1.03
2018-09-07T18:05:41.776Z,0.90
2018-09-07T18:08:09.975Z,0.80
2018-09-07T18:10:38.209Z,0.90
2018-09-07T18:13:06.430Z,1.00
2018-09-07T18:15:34.656Z,0.70
2018-09-07T18:18:02.895Z,1.00
2018-09-07T18:20:33.341Z,0.70
2018-09-07T18:23:01.571Z,0.97
2018-09-07T18:25:29.858Z,1.40
2018-09-07T18:27:58.091Z,1.03
2018-09-07T18:30:26.330Z,0.90
2018-09-07T18:32:54.571Z,1.00
2018-09-07T18:35:22.941Z,0.90
2018-09-07T18:37:51.055Z,0.70
2018-09-07T18:40:19.268Z,1.30
2018-09-07T18:42:47.546Z,1.30
2018-09-07T18:45:15.745Z,0.83
2018-09-07T18:47:43.971Z,1.10
2018-09-07T18:50:12.162Z,1.00
2018-09-07T18:52:40.407Z,1.23
2018-09-07T18:55:08.750Z,0.97
2018-09-07T18:57:36.952Z,1.00
2018-09-07T19:00:05.247Z,1.23
2018-09-07T19:02:33.512Z,1.53
2018-09-07T19:05:01.722Z,2.00
2018-09-07T19:07:30.011Z,1.20
2018-09-07T19:09:58.290Z,1.53
2018-09-07T19:12:26.429Z,1.53
2018-09-07T19:14:54.616Z,1.53
2018-09-07T19:17:22.854Z,1.50
2018-09-07T19:19:51.072Z,0.93
2018-09-07T19:22:19.281Z,1.30
2018-09-07T19:24:47.640Z,1.20
2018-09-07T19:27:15.851Z,1.73
2018-09-07T19:29:44.099Z,1.50
2018-09-07T19:32:12.395Z,1.13
2018-09-07T19:34:40.619Z,1.43
2018-09-07T19:37:08.822Z,1.40
2018-09-07T19:39:37.114Z,1.17
2018-09-07T19:42:05.347Z,1.70
2018-09-07T19:44:33.547Z,1.00
2018-09-07T19:47:01.729Z,1.10
2018-09-07T19:49:29.964Z,1.20
2018-09-07T19:51:58.199Z,1.77
2018-09-07T19:54:26.582Z,1.27
2018-09-07T19:56:54.784Z,1.80
2018-09-07T19:59:23.027Z,2.20
2018-09-07T20:01:51.240Z,1.90
2018-09-07T20:04:19.471Z,1.50
2018-09-07T20:06:47.998Z,2.30
2018-09-07T20:09:16.139Z,1.70
2018-09-07T20:11:44.369Z,1.77
2018-09-07T20:14:12.602Z,1.90
2018-09-07T20:16:40.865Z,2.80
2018-09-07T20:19:09.080Z,1.73
2018-09-07T20:21:37.319Z,2.20
2018-09-07T20:24:05.681Z,1.57
2018-09-07T20:26:33.892Z,2.23
2018-09-07T20:29:02.133Z,1.80
2018-09-07T20:31:30.351Z,2.20
2018-09-07T20:33:58.559Z,1.70
2018-09-07T20:36:26.779Z,1.83
2018-09-07T20:38:54.975Z,2.17
2018-09-07T20:41:23.191Z,1.77
2018-09-07T20:43:51.412Z,2.43
2018-09-07T20:46:19.604Z,2.57
2018-09-07T20:48:47.836Z,1.53
2018-09-07T20:51:16.031Z,2.20
2018-09-07T20:53:44.430Z,1.90
2018-09-07T20:56:12.649Z,2.50
2018-09-07T20:58:40.859Z,1.90
2018-09-07T21:01:09.081Z,1.80
2018-09-07T21:03:37.306Z,2.67
2018-09-07T21:06:09.815Z,2.10
2018-09-07T21:08:38.955Z,1.87
2018-09-07T21:11:07.535Z,1.83
2018-09-07T21:13:35.743Z,2.17
2018-09-07T21:16:04.337Z,1.83
2018-09-07T21:18:32.731Z,1.90
2018-09-07T21:21:01.247Z,2.13
2018-09-07T21:23:36.024Z,2.30
2018-09-07T21:26:04.238Z,2.00
2018-09-07T21:28:32.436Z,1.60
2018-09-07T21:31:00.658Z,1.90
2018-09-07T21:33:28.865Z,1.87
2018-09-07T21:35:57.115Z,2.00
2018-09-07T21:38:25.315Z,2.10
2018-09-07T21:40:53.524Z,1.67
2018-09-07T21:43:21.751Z,2.20
2018-09-07T21:45:50.147Z,2.13
2018-09-07T21:48:18.371Z,2.30
2018-09-07T21:50:46.591Z,1.77
2018-09-07T21:53:14.947Z,2.50
2018-09-07T21:55:43.210Z,2.30
2018-09-07T21:58:11.431Z,1.80
2018-09-07T22:00:39.696Z,2.17
2018-09-07T22:03:07.870Z,1.90
2018-09-07T22:05:36.107Z,3.10
2018-09-07T22:08:04.391Z,2.37
2018-09-07T22:10:32.695Z,2.60
2018-09-07T22:13:00.896Z,2.40
2018-09-07T22:15:29.255Z,2.87
2018-09-07T22:17:57.523Z,2.33
2018-09-07T22:20:25.840Z,2.40
2018-09-07T22:22:54.081Z,2.70
2018-09-07T22:25:22.298Z,2.30
2018-09-07T22:27:50.547Z,2.40
2018-09-07T22:30:18.791Z,2.50
2018-09-07T22:32:47.027Z,2.50
2018-09-07T22:35:15.312Z,2.30
2018-09-07T22:37:43.535Z,2.23
2018-09-07T22:40:12.872Z,2.23
2018-09-07T22:42:41.291Z,2.70
2018-09-07T22:45:09.603Z,2.20
2018-09-07T22:47:37.802Z,2.40
2018-09-07T22:50:06.083Z,2.33
2018-09-07T22:52:34.315Z,2.60
2018-09-07T22:55:02.600Z,1.90
2018-09-07T22:57:30.816Z,2.10
2018-09-07T22:59:59.051Z,1.80
2018-09-07T23:02:27.261Z,2.50
2018-09-07T23:04:55.475Z,2.60
2018-09-07T23:07:23.678Z,2.13
2018-09-07T23:09:51.933Z,2.37
2018-09-07T23:12:20.159Z,2.27
2018-09-07T23:14:48.482Z,2.40
2018-09-07T23:17:16.720Z,2.70
2018-09-07T23:19:44.924Z,3.00
2018-09-07T23:22:13.150Z,2.20
2018-09-07T23:24:41.371Z,2.87
2018-09-07T23:27:09.606Z,2.07
2018-09-07T23:29:37.812Z,2.13
2018-09-07T23:32:06.050Z,2.67
2018-09-07T23:34:34.271Z,2.37
2018-09-07T23:37:02.487Z,2.40
2018-09-07T23:39:30.711Z,2.70
2018-09-07T23:41:58.955Z,2.73
2018-09-07T23:44:27.195Z,2.90
2018-09-07T23:46:55.456Z,2.53
2018-09-07T23:49:23.663Z,2.50
2018-09-07T23:51:51.863Z,3.03
2018-09-07T23:54:20.084Z,3.03
2018-09-07T23:56:48.318Z,2.40
2018-09-07T23:59:16.533Z,2.80
